createdAt,value
2018-04-16T00:00:39.838Z,"    0"
2018-04-16T00:05:36.667Z,"    0"
2018-04-16T00:10:32.464Z,"    0"
2018-04-16T00:15:33.089Z,"    0"
2018-04-16T00:20:32.911Z,"    0"
2018-04-16T00:25:32.809Z,"    0"
2018-04-16T00:30:27.532Z,"    0"
2018-04-16T00:35:28.568Z,"    0"
2018-04-16T00:40:24.050Z,"    0"
2018-04-16T00:45:21.019Z,"    0"
2018-04-16T00:50:16.793Z,"    0"
2018-04-16T00:55:16.535Z,"    0"
2018-04-16T01:00:16.497Z,"    0"
2018-04-16T01:05:12.757Z,"    0"
2018-04-16T01:10:15.093Z,"    0"
2018-04-16T01:15:11.477Z,"    0"
2018-04-16T01:20:08.770Z,"    0"
2018-04-16T01:25:10.768Z,"    0"
2018-04-16T01:30:06.550Z,"    0"
2018-04-16T01:35:06.994Z,"    0"
2018-04-16T01:40:06.680Z,"    0"
2018-04-16T01:45:06.064Z,"    0"
2018-04-16T01:50:06.820Z,"    0"
2018-04-16T01:55:01.787Z,"    0"
2018-04-16T01:59:57.504Z,"    0"
2018-04-16T02:04:53.668Z,"    0"
2018-04-16T02:09:53.386Z,"    0"
2018-04-16T02:14:49.795Z,"    0"
2018-04-16T02:19:46.547Z,"    0"
2018-04-16T02:24:46.467Z,"    0"
2018-04-16T02:29:42.648Z,"    0"
2018-04-16T02:34:39.320Z,"    0"
2018-04-16T02:39:40.683Z,"    0"
2018-04-16T02:44:37.385Z,"    0"
2018-04-16T02:49:39.508Z,"    0"
2018-04-16T02:54:34.073Z,"    0"
2018-04-16T02:59:29.995Z,"    0"
2018-04-16T03:04:30.710Z,"    0"
2018-04-16T03:09:26.908Z,"    0"
2018-04-16T03:14:28.534Z,"    0"
2018-04-16T03:19:24.299Z,"    0"
2018-04-16T03:24:23.960Z,"    0"
2018-04-16T03:29:23.183Z,"    0"
2018-04-16T03:34:18.923Z,"    0"
2018-04-16T03:39:14.617Z,"    0"
2018-04-16T03:44:15.234Z,"    0"
2018-04-16T03:49:16.007Z,"    0"
2018-04-16T03:54:11.606Z,"    0"
2018-04-16T03:59:07.268Z,"    0"
2018-04-16T04:04:03.210Z,"    0"
2018-04-16T04:08:58.802Z,"    0"
2018-04-16T04:13:55.592Z,"    0"
2018-04-16T04:18:52.149Z,"    0"
2018-04-16T04:23:51.743Z,"    0"
2018-04-16T04:28:49.755Z,"    0"
2018-04-16T04:33:52.697Z,"    5"
2018-04-16T04:38:53.691Z,"    5"
2018-04-16T04:43:48.703Z,"   10"
2018-04-16T04:48:49.903Z,"   15"
2018-04-16T04:53:49.573Z,"   15"
2018-04-16T04:58:44.559Z,"   20"
2018-04-16T05:03:41.663Z,"   25"
2018-04-16T05:08:37.328Z,"   30"
2018-04-16T05:13:34.156Z,"   35"
2018-04-16T05:18:35.172Z,"   40"
2018-04-16T05:23:31.408Z,"   50"
2018-04-16T05:28:32.089Z,"   55"
2018-04-16T05:33:32.116Z,"   70"
2018-04-16T05:38:27.432Z,"   85"
2018-04-16T05:43:24.481Z,"   90"
2018-04-16T05:48:25.311Z,"   95"
2018-04-16T05:53:25.314Z,"  110"
2018-04-16T05:58:25.295Z,"  110"
2018-04-16T06:03:20.168Z,"  120"
2018-04-16T06:08:21.136Z,"  170"
2018-04-16T06:13:17.409Z,"  175"
2018-04-16T06:18:14.812Z,"  265"
2018-04-16T06:23:16.250Z,"  300"
2018-04-16T06:28:16.638Z,"  195"
2018-04-16T06:33:13.870Z,"  155"
2018-04-16T06:38:14.367Z,"  155"
2018-04-16T06:43:10.393Z,"  205"
2018-04-16T06:48:06.221Z,"  295"
2018-04-16T06:53:02.680Z,"  290"
2018-04-16T06:58:01.466Z,"  275"
2018-04-16T07:03:01.346Z,"  350"
2018-04-16T07:07:58.987Z,"  325"
2018-04-16T07:13:01.069Z,"  325"
2018-04-16T07:17:59.803Z,"  295"
2018-04-16T07:23:00.055Z,"  230"
2018-04-16T07:27:56.437Z,"  225"
2018-04-16T07:32:57.084Z,"  235"
2018-04-16T07:42:56.540Z,"  285"
2018-04-16T07:47:51.780Z,"  380"
2018-04-16T07:52:48.990Z,"  250"
2018-04-16T07:57:48.624Z,"  540"
2018-04-16T08:02:49.035Z,"  545"
2018-04-16T08:07:46.656Z,"  775"
2018-04-16T08:12:49.125Z,"  965"
2018-04-16T08:17:49.076Z,"  965"
2018-04-16T08:22:46.468Z,"  660"
2018-04-16T08:27:49.002Z,"  435"
2018-04-16T08:32:49.846Z,"  870"
2018-04-16T08:37:54.560Z,"  285"
2018-04-16T08:42:53.648Z,"  300"
2018-04-16T08:47:48.085Z,"  560"
2018-04-16T08:52:49.124Z,"  630"
2018-04-16T08:57:44.304Z,"  650"
2018-04-16T09:02:41.047Z,"  645"
2018-04-16T09:07:36.476Z,"  545"
2018-04-16T09:12:36.474Z,"  755"
2018-04-16T09:17:35.524Z,"  565"
2018-04-16T09:22:36.172Z,"  400"
2018-04-16T09:37:45.667Z,"  315"
2018-04-16T09:42:44.277Z,"  595"
2018-04-16T09:47:44.739Z,"  430"
2018-04-16T09:52:40.731Z,"  485"
2018-04-16T09:57:39.180Z,"  750"
2018-04-16T10:02:39.236Z,"  615"
2018-04-16T10:07:40.579Z," 1435"
2018-04-16T10:17:45.082Z," 1295"
2018-04-16T10:22:46.267Z,"  340"
2018-04-16T10:27:40.811Z," 1665"
2018-04-16T10:32:42.262Z,"  295"
2018-04-16T10:37:40.063Z," 1700"
2018-04-16T10:42:34.890Z,"  380"
2018-04-16T10:47:36.646Z," 1280"
2018-04-16T10:52:33.981Z," 1165"
2018-04-16T10:57:30.237Z,"  310"
2018-04-16T11:02:30.329Z,"  940"
2018-04-16T11:07:29.759Z,"  455"
2018-04-16T11:12:30.546Z," 1285"
2018-04-16T11:17:28.140Z,"  420"
2018-04-16T11:22:22.445Z,"  490"
2018-04-16T11:27:18.075Z,"  345"
2018-04-16T11:32:17.731Z," 1550"
2018-04-16T11:37:21.722Z,"  345"
2018-04-16T11:42:17.640Z,"  520"
2018-04-16T11:47:22.132Z," 1565"
2018-04-16T11:52:16.689Z," 1570"
2018-04-16T11:57:20.204Z," 1470"
2018-04-16T12:02:16.659Z,"  470"
2018-04-16T12:07:09.567Z,"  310"
2018-04-16T12:12:04.566Z,"  415"
2018-04-16T12:17:00.608Z,"  310"
2018-04-16T12:21:55.784Z,"  535"
2018-04-16T12:26:52.690Z,"  410"
2018-04-16T12:31:48.531Z,"  375"
2018-04-16T12:36:45.387Z,"  715"
2018-04-16T12:46:44.275Z,"  395"
2018-04-16T12:51:39.755Z," 1480"
2018-04-16T12:56:36.796Z,"  450"
2018-04-16T13:06:37.805Z,"  325"
2018-04-16T13:11:36.503Z,"  455"
2018-04-16T13:16:31.594Z,"  335"
2018-04-16T13:21:29.609Z,"  350"
2018-04-16T13:26:26.262Z,"  225"
2018-04-16T13:31:25.412Z,"  215"
2018-04-16T13:36:24.388Z,"  210"
2018-04-16T13:41:25.211Z,"  225"
2018-04-16T13:46:19.912Z,"  400"
2018-04-16T13:51:19.994Z,"  340"
2018-04-16T13:56:16.080Z,"  285"
2018-04-16T14:01:13.128Z,"  325"
2018-04-16T14:06:09.158Z,"  270"
2018-04-16T14:11:10.979Z,"  360"
2018-04-16T14:16:05.881Z,"  220"
2018-04-16T14:21:01.776Z,"  535"
2018-04-16T14:26:03.578Z,"  840"
2018-04-16T14:31:02.998Z," 1025"
2018-04-16T14:36:04.230Z,"  270"
2018-04-16T14:41:03.679Z,"  865"
2018-04-16T14:46:04.516Z,"  245"
2018-04-16T14:51:04.263Z,"  245"
2018-04-16T14:55:59.119Z,"  210"
2018-04-16T15:00:56.238Z,"  180"
2018-04-16T15:05:56.915Z,"  200"
2018-04-16T15:10:52.740Z,"  185"
2018-04-16T15:15:49.676Z,"  165"
2018-04-16T15:20:52.071Z,"  160"
2018-04-16T15:25:48.496Z,"  140"
2018-04-16T15:30:45.186Z,"  145"
2018-04-16T15:35:48.789Z,"  180"
2018-04-16T15:40:47.523Z,"  180"
2018-04-16T15:45:42.683Z,"  150"
2018-04-16T15:50:43.202Z,"  125"
2018-04-16T15:55:38.341Z,"  155"
2018-04-16T16:00:37.254Z,"  165"
2018-04-16T16:05:34.302Z,"  150"
2018-04-16T16:10:33.997Z,"  140"
2018-04-16T16:15:31.352Z,"  125"
2018-04-16T16:20:28.777Z,"  105"
2018-04-16T16:25:28.874Z,"   95"
2018-04-16T16:30:28.263Z,"   90"
2018-04-16T16:35:27.071Z,"   90"
2018-04-16T16:40:21.936Z,"   90"
2018-04-16T16:45:19.006Z,"   85"
2018-04-16T16:50:18.464Z,"   80"
2018-04-16T16:55:17.513Z,"   75"
2018-04-16T17:00:17.769Z,"   75"
2018-04-16T17:05:17.906Z,"   90"
2018-04-16T17:10:18.001Z,"   70"
2018-04-16T17:15:12.728Z,"   60"
2018-04-16T17:20:10.974Z,"   60"
2018-04-16T17:25:07.733Z,"   55"
2018-04-16T17:30:04.118Z,"   55"
2018-04-16T17:34:59.831Z,"   50"
2018-04-16T17:39:55.893Z,"   45"
2018-04-16T17:44:56.312Z,"   40"
2018-04-16T17:49:56.282Z,"   35"
2018-04-16T17:54:51.387Z,"   30"
2018-04-16T17:59:47.038Z,"   25"
2018-04-16T18:09:50.932Z,"   15"
2018-04-16T18:14:51.084Z,"   10"
2018-04-16T18:19:50.456Z,"   10"
2018-04-16T18:24:45.138Z,"    5"
2018-04-16T18:29:40.969Z,"    0"
2018-04-16T18:34:38.809Z,"    0"
2018-04-16T18:39:39.126Z,"    0"
2018-04-16T18:44:35.035Z,"    0"
2018-04-16T18:49:32.070Z,"    0"
2018-04-16T18:54:31.708Z,"    0"
2018-04-16T18:59:30.535Z,"    0"
2018-04-16T19:04:25.159Z,"    0"
2018-04-16T19:09:25.457Z,"    0"
2018-04-16T19:14:21.392Z,"    0"
2018-04-16T19:19:21.895Z,"    0"
2018-04-16T19:24:18.764Z,"    0"
2018-04-16T19:29:20.297Z,"    0"
2018-04-16T19:34:20.785Z,"    0"
2018-04-16T19:39:19.854Z,"    0"
2018-04-16T19:44:19.677Z,"    0"
2018-04-16T19:49:15.469Z,"    0"
2018-04-16T19:54:12.812Z,"    0"
2018-04-16T19:59:13.957Z,"    0"
2018-04-16T20:04:11.196Z,"    0"
2018-04-16T20:09:07.777Z,"    0"
2018-04-16T20:14:07.650Z,"    0"
2018-04-16T20:19:04.886Z,"    0"
2018-04-16T20:24:00.946Z,"    0"
2018-04-16T20:28:56.740Z,"    0"
2018-04-16T20:33:57.572Z,"    0"
2018-04-16T20:38:53.856Z,"    0"
2018-04-16T20:43:54.014Z,"    0"
2018-04-16T20:48:55.395Z,"    0"
2018-04-16T20:53:55.501Z,"    0"
2018-04-16T20:58:50.489Z,"    0"
2018-04-16T21:03:50.190Z,"    0"
2018-04-16T21:08:45.964Z,"    0"
2018-04-16T21:13:43.461Z,"    0"
2018-04-16T21:18:43.960Z,"    0"
2018-04-16T21:23:44.046Z,"    0"
2018-04-16T21:28:39.989Z,"    0"
2018-04-16T21:33:40.390Z,"    0"
2018-04-16T21:38:35.580Z,"    0"
2018-04-16T21:43:31.560Z,"    0"
2018-04-16T21:48:28.930Z,"    0"
2018-04-16T21:53:26.512Z,"    0"
2018-04-16T21:58:22.066Z,"    0"
2018-04-16T22:03:22.967Z,"    0"
2018-04-16T22:08:22.731Z,"    0"
2018-04-16T22:13:17.985Z,"    0"
2018-04-16T22:18:14.533Z,"    0"
2018-04-16T22:23:11.221Z,"    0"
2018-04-16T22:28:06.973Z,"    0"
2018-04-16T22:33:06.704Z,"    0"
2018-04-16T22:38:05.824Z,"    0"
2018-04-16T22:43:01.976Z,"    0"
2018-04-16T22:48:02.670Z,"    0"
2018-04-16T22:52:57.437Z,"    0"
2018-04-16T22:57:57.287Z,"    0"
2018-04-16T23:02:52.618Z,"    0"
2018-04-16T23:07:49.019Z,"    0"
2018-04-16T23:12:46.760Z,"    0"
2018-04-16T23:17:43.195Z,"    0"
2018-04-16T23:22:40.761Z,"    0"
2018-04-16T23:27:37.660Z,"    0"
2018-04-16T23:32:33.790Z,"    0"
2018-04-16T23:37:30.533Z,"    0"
2018-04-16T23:42:31.125Z,"    0"
2018-04-16T23:47:27.160Z,"    0"
2018-04-16T23:52:22.574Z,"    0"
2018-04-16T23:57:18.395Z,"    0"
